createdAt,value
2018-12-27T00:00:53.369Z,-464.32
2018-12-27T00:01:53.501Z,-462.21
2018-12-27T00:02:54.943Z,-459.57
2018-12-27T00:03:53.665Z,-459.84
2018-12-27T00:04:53.778Z,-461.54
2018-12-27T00:05:53.860Z,-456.78
2018-12-27T00:06:53.998Z,-457.42
2018-12-27T00:07:54.184Z,-460.02
2018-12-27T00:08:54.158Z,-458.09
2018-12-27T00:09:54.277Z,-460.44
2018-12-27T00:10:54.359Z,-457.19
2018-12-27T00:11:54.487Z,-458.54
2018-12-27T00:12:54.622Z,-457.67
2018-12-27T00:13:54.659Z,-460.30
2018-12-27T00:14:54.758Z,-462.15
2018-12-27T00:15:54.893Z,-458.99
2018-12-27T00:16:54.975Z,-461.41
2018-12-27T00:17:55.039Z,-461.11
2018-12-27T00:18:55.144Z,-462.23
2018-12-27T00:19:55.266Z,-461.55
2018-12-27T00:20:55.328Z,-460.03
2018-12-27T00:21:55.470Z,-458.23
2018-12-27T00:22:55.546Z,-458.21
2018-12-27T00:23:55.688Z,-460.18
2018-12-27T00:24:55.768Z,-460.01
2018-12-27T00:25:55.811Z,-461.00
2018-12-27T00:26:55.933Z,-459.45
2018-12-27T00:27:56.030Z,-462.78
2018-12-27T00:28:56.135Z,-461.05
2018-12-27T00:29:56.262Z,-461.45
2018-12-27T00:30:56.346Z,-458.94
2018-12-27T00:31:56.466Z,-463.05
2018-12-27T00:33:02.913Z,-462.31
2018-12-27T00:33:57.655Z,-460.66
2018-12-27T00:34:56.770Z,-462.28
2018-12-27T00:35:56.861Z,-461.76
2018-12-27T00:36:56.966Z,-457.81
2018-12-27T00:37:57.052Z,-460.29
2018-12-27T00:38:57.133Z,-459.11
2018-12-27T00:39:57.276Z,-461.27
2018-12-27T00:40:57.495Z,-459.24
2018-12-27T00:41:57.465Z,-461.30
2018-12-27T00:42:57.529Z,-456.87
2018-12-27T00:43:57.629Z,-461.18
2018-12-27T00:44:57.758Z,-459.29
2018-12-27T00:45:57.849Z,-461.14
2018-12-27T00:46:57.958Z,-457.15
2018-12-27T00:47:58.046Z,-461.99
2018-12-27T00:48:58.206Z,-455.81
2018-12-27T00:49:58.256Z,-459.74
2018-12-27T00:50:58.348Z,-460.42
2018-12-27T00:51:58.456Z,-459.42
2018-12-27T00:52:58.539Z,-458.47
2018-12-27T00:53:58.638Z,-461.35
2018-12-27T00:54:58.739Z,-460.34
2018-12-27T00:55:58.855Z,-457.05
2018-12-27T00:56:58.988Z,-460.63
2018-12-27T00:57:59.054Z,-462.26
2018-12-27T00:58:59.143Z,-462.99
2018-12-27T00:59:59.261Z,-460.55
2018-12-27T01:00:59.325Z,-462.02
2018-12-27T01:01:59.428Z,-463.97
2018-12-27T01:02:59.575Z,-463.08
2018-12-27T01:03:59.661Z,-461.34
2018-12-27T01:04:59.833Z,-461.42
2018-12-27T01:05:59.837Z,-457.88
2018-12-27T01:06:59.927Z,-460.04
2018-12-27T01:08:00.063Z,-458.07
2018-12-27T01:09:00.166Z,-458.11
2018-12-27T01:10:00.292Z,-461.22
2018-12-27T01:11:00.366Z,-459.46
2018-12-27T01:12:00.467Z,-458.02
2018-12-27T01:13:00.614Z,-462.40
2018-12-27T01:14:00.715Z,-459.76
2018-12-27T01:15:00.767Z,-461.14
2018-12-27T01:16:02.308Z,-460.65
2018-12-27T01:17:01.183Z,-460.67
2018-12-27T01:18:01.084Z,-460.06
2018-12-27T01:19:01.142Z,-463.34
2018-12-27T01:20:01.283Z,-457.15
2018-12-27T01:21:01.395Z,-457.92
2018-12-27T01:22:01.615Z,-461.43
2018-12-27T01:23:01.594Z,-456.75
2018-12-27T01:24:01.662Z,-458.85
2018-12-27T01:25:01.791Z,-460.30
2018-12-27T01:26:01.871Z,-462.39
2018-12-27T01:27:01.979Z,-458.45
2018-12-27T01:28:02.096Z,-458.42
2018-12-27T01:29:02.184Z,-460.49
2018-12-27T01:30:02.356Z,-458.68
2018-12-27T01:31:02.380Z,-455.95
2018-12-27T01:32:02.485Z,-457.97
2018-12-27T01:33:02.597Z,-458.36
2018-12-27T01:34:02.676Z,-455.62
2018-12-27T01:35:02.798Z,-461.01
2018-12-27T01:36:02.860Z,-457.60
2018-12-27T01:37:02.994Z,-456.75
2018-12-27T01:38:03.166Z,-460.50
2018-12-27T01:39:03.176Z,-458.23
2018-12-27T01:40:03.286Z,-459.93
2018-12-27T01:41:03.368Z,-458.93
2018-12-27T01:42:03.455Z,-459.84
2018-12-27T01:43:03.570Z,-457.09
2018-12-27T01:44:03.686Z,-460.81
2018-12-27T01:45:03.784Z,-463.81
2018-12-27T01:46:03.921Z,-462.06
2018-12-27T01:47:03.946Z,-455.82
2018-12-27T01:48:04.060Z,-457.16
2018-12-27T01:49:04.180Z,-458.57
2018-12-27T01:50:04.301Z,-459.60
2018-12-27T01:51:04.382Z,-460.70
2018-12-27T01:52:04.482Z,-461.41
2018-12-27T01:53:04.605Z,-460.51
2018-12-27T01:54:04.704Z,-461.42
2018-12-27T01:55:04.866Z,-461.52
2018-12-27T01:56:04.890Z,-458.61
2018-12-27T01:57:04.983Z,-455.53
2018-12-27T01:58:05.103Z,-460.59
2018-12-27T01:59:05.193Z,-461.08
2018-12-27T02:00:05.279Z,-460.35
2018-12-27T02:01:05.386Z,-462.75
2018-12-27T02:02:05.515Z,-459.29
2018-12-27T02:03:05.733Z,-463.76
2018-12-27T02:04:05.702Z,-456.78
2018-12-27T02:05:05.782Z,-455.85
2018-12-27T02:06:05.900Z,-460.90
2018-12-27T02:07:05.989Z,-460.76
2018-12-27T02:08:06.141Z,-459.48
2018-12-27T02:09:06.227Z,-457.83
2018-12-27T02:10:06.309Z,-460.00
2018-12-27T02:11:06.522Z,-460.56
2018-12-27T02:12:06.511Z,-457.16
2018-12-27T02:13:06.628Z,-459.63
2018-12-27T02:14:06.725Z,-460.28
2018-12-27T02:15:06.810Z,-456.17
2018-12-27T02:16:06.926Z,-458.64
2018-12-27T02:17:07.009Z,-457.55
2018-12-27T02:18:07.143Z,-459.20
2018-12-27T02:19:07.316Z,-461.85
2018-12-27T02:20:07.324Z,-458.77
2018-12-27T02:21:07.448Z,-457.80
2018-12-27T02:22:07.528Z,-458.26
2018-12-27T02:23:07.631Z,-457.06
2018-12-27T02:24:07.729Z,-461.97
2018-12-27T02:25:07.827Z,-462.16
2018-12-27T02:26:07.942Z,-460.15
2018-12-27T02:27:08.055Z,-456.85
2018-12-27T02:28:08.139Z,-462.22
2018-12-27T02:29:08.227Z,-458.07
2018-12-27T02:30:08.320Z,-460.73
2018-12-27T02:31:08.460Z,-460.86
2018-12-27T02:32:08.546Z,-459.76
2018-12-27T02:33:08.658Z,-455.63
2018-12-27T02:34:08.758Z,-458.24
2018-12-27T02:35:08.883Z,-460.40
2018-12-27T02:36:09.032Z,-459.55
2018-12-27T02:37:09.035Z,-457.67
2018-12-27T02:38:09.159Z,-458.56
2018-12-27T02:39:09.261Z,-458.67
2018-12-27T02:40:09.321Z,-457.47
2018-12-27T02:41:09.442Z,-458.26
2018-12-27T02:42:09.541Z,-457.79
2018-12-27T02:43:09.669Z,-461.00
2018-12-27T02:44:09.887Z,-454.63
2018-12-27T02:45:09.817Z,-456.34
2018-12-27T02:46:09.934Z,-455.82
2018-12-27T02:47:10.033Z,-461.01
2018-12-27T02:48:10.144Z,-457.01
2018-12-27T02:49:10.244Z,-459.58
2018-12-27T02:50:10.335Z,-459.77
2018-12-27T02:51:10.455Z,-461.67
2018-12-27T02:52:10.599Z,-460.37
2018-12-27T02:53:10.639Z,-428.50
2018-12-27T02:54:10.744Z,-437.05
2018-12-27T02:55:11.045Z,-430.81
2018-12-27T02:56:10.940Z,-434.79
2018-12-27T02:57:11.026Z,-437.62
2018-12-27T02:58:11.128Z,-438.01
2018-12-27T02:59:11.233Z,-439.63
2018-12-27T03:00:11.394Z,-430.09
2018-12-27T03:01:11.439Z,-431.42
2018-12-27T03:02:11.530Z,-436.69
2018-12-27T03:03:11.655Z,-429.25
2018-12-27T03:04:11.727Z,-437.06
2018-12-27T03:05:11.824Z,-431.46
2018-12-27T03:06:11.938Z,-430.43
2018-12-27T03:07:12.023Z,-430.68
2018-12-27T03:08:12.182Z,-435.69
2018-12-27T03:09:12.251Z,-436.98
2018-12-27T03:10:12.343Z,-430.30
2018-12-27T03:11:12.448Z,-428.56
2018-12-27T03:12:12.542Z,-436.73
2018-12-27T03:13:12.638Z,-436.77
2018-12-27T03:14:12.741Z,-429.54
2018-12-27T03:15:12.858Z,-438.89
2018-12-27T03:16:12.955Z,-442.80
2018-12-27T03:17:13.151Z,-440.09
2018-12-27T03:18:13.151Z,-440.35
2018-12-27T03:19:13.263Z,-433.16
2018-12-27T03:20:13.384Z,-435.05
2018-12-27T03:21:13.582Z,-437.63
2018-12-27T03:22:13.552Z,-434.64
2018-12-27T03:23:13.669Z,-432.29
2018-12-27T03:24:13.783Z,-428.84
2018-12-27T03:25:14.011Z,-433.38
2018-12-27T03:26:13.979Z,-437.82
2018-12-27T03:27:14.086Z,-435.04
2018-12-27T03:28:14.195Z,-428.75
2018-12-27T03:29:14.312Z,-434.31
2018-12-27T03:30:14.413Z,-430.07
2018-12-27T03:31:14.518Z,-425.62
2018-12-27T03:32:14.601Z,-438.14
2018-12-27T03:33:14.736Z,-434.29
2018-12-27T03:34:14.801Z,-431.39
2018-12-27T03:35:14.899Z,-426.52
2018-12-27T03:36:15.002Z,-434.69
2018-12-27T03:37:15.088Z,-428.67
2018-12-27T03:38:15.185Z,-426.29
2018-12-27T03:39:15.286Z,-426.98
2018-12-27T03:40:15.404Z,-436.29
2018-12-27T03:41:15.580Z,-433.57
2018-12-27T03:42:15.570Z,-429.66
2018-12-27T03:43:15.675Z,-429.35
2018-12-27T03:44:15.789Z,-427.90
2018-12-27T03:45:15.871Z,-432.98
2018-12-27T03:46:15.984Z,-431.27
2018-12-27T03:47:16.074Z,-436.53
2018-12-27T03:48:16.179Z,-431.59
2018-12-27T03:49:16.327Z,-428.18
2018-12-27T03:50:16.410Z,-437.25
2018-12-27T03:51:16.491Z,-428.16
2018-12-27T03:52:16.600Z,-434.92
2018-12-27T03:53:16.698Z,-430.71
2018-12-27T03:54:16.817Z,-434.73
2018-12-27T03:55:16.916Z,-430.95
2018-12-27T03:56:17.018Z,-434.08
2018-12-27T03:57:17.105Z,-435.77
2018-12-27T03:58:17.304Z,-428.72
2018-12-27T03:59:17.320Z,-429.00
2018-12-27T04:00:17.507Z,-434.36
2018-12-27T04:01:17.517Z,-430.68
2018-12-27T04:02:17.583Z,-434.39
2018-12-27T04:03:17.699Z,-433.19
2018-12-27T04:04:17.814Z,-427.05
2018-12-27T04:05:17.907Z,-431.39
2018-12-27T04:06:18.165Z,-434.22
2018-12-27T04:07:18.087Z,-430.19
2018-12-27T04:08:18.205Z,-433.52
2018-12-27T04:09:18.321Z,-434.74
2018-12-27T04:10:18.408Z,-428.53
2018-12-27T04:11:18.621Z,-433.11
2018-12-27T04:12:18.601Z,-427.93
2018-12-27T04:13:18.797Z,-425.67
2018-12-27T04:14:18.869Z,-428.67
2018-12-27T04:15:18.930Z,-427.65
2018-12-27T04:16:19.012Z,-436.48
2018-12-27T04:17:19.116Z,-430.11
2018-12-27T04:18:19.215Z,-435.61
2018-12-27T04:19:19.312Z,-428.98
2018-12-27T04:20:19.430Z,-431.88
2018-12-27T04:21:19.532Z,-424.45
2018-12-27T04:22:19.750Z,-427.62
2018-12-27T04:23:19.731Z,-435.21
2018-12-27T04:24:19.855Z,-433.99
2018-12-27T04:25:19.936Z,-427.83
2018-12-27T04:26:20.022Z,-426.84
2018-12-27T04:27:20.164Z,-430.68
2018-12-27T04:28:20.264Z,-433.01
2018-12-27T04:29:20.379Z,-430.60
2018-12-27T04:30:20.518Z,-436.83
2018-12-27T04:31:20.597Z,-427.45
2018-12-27T04:32:20.918Z,-435.18
2018-12-27T04:33:20.761Z,-429.05
2018-12-27T04:34:20.874Z,-431.26
2018-12-27T04:35:20.987Z,-440.08
2018-12-27T04:36:21.062Z,-438.97
2018-12-27T04:37:21.180Z,-433.32
2018-12-27T04:38:21.252Z,-427.73
2018-12-27T04:39:21.473Z,-433.14
2018-12-27T04:40:21.475Z,-428.12
2018-12-27T04:41:21.575Z,-438.99
2018-12-27T04:42:21.662Z,-433.67
2018-12-27T04:43:21.739Z,-432.12
2018-12-27T04:44:21.870Z,-431.13
2018-12-27T04:45:21.954Z,-430.93
2018-12-27T04:46:22.076Z,-435.99
2018-12-27T04:47:22.296Z,-436.42
2018-12-27T04:48:22.232Z,-440.10
2018-12-27T04:49:22.364Z,-441.60
2018-12-27T04:50:22.449Z,-438.10
2018-12-27T04:51:22.569Z,-429.32
2018-12-27T04:52:22.669Z,-437.16
2018-12-27T04:53:22.751Z,-432.76
2018-12-27T04:54:22.845Z,-431.84
2018-12-27T04:55:23.004Z,-440.20
2018-12-27T04:56:23.061Z,-441.62
2018-12-27T04:57:23.184Z,-442.71
2018-12-27T04:58:23.257Z,-433.26
2018-12-27T04:59:23.375Z,-438.70
2018-12-27T05:00:23.443Z,-439.81
2018-12-27T05:01:23.544Z,-434.55
2018-12-27T05:02:23.691Z,-437.98
2018-12-27T05:03:23.848Z,-430.36
2018-12-27T05:04:23.856Z,-436.86
2018-12-27T05:05:23.945Z,-428.23
2018-12-27T05:06:24.047Z,-435.68
2018-12-27T05:07:24.156Z,-435.35
2018-12-27T05:08:24.258Z,-429.37
2018-12-27T05:09:24.365Z,-429.69
2018-12-27T05:10:24.457Z,-427.79
2018-12-27T05:11:24.585Z,-433.00
2018-12-27T05:12:24.743Z,-433.38
2018-12-27T05:13:24.756Z,-437.23
2018-12-27T05:14:24.871Z,-432.09
2018-12-27T05:15:24.946Z,-431.57
2018-12-27T05:16:25.060Z,-432.79
2018-12-27T05:17:25.189Z,-431.35
2018-12-27T05:18:25.251Z,-430.29
2018-12-27T05:19:25.389Z,-438.07
2018-12-27T05:20:25.610Z,-435.31
2018-12-27T05:21:25.590Z,-439.54
2018-12-27T05:22:25.733Z,-441.83
2018-12-27T05:23:25.761Z,-436.71
2018-12-27T05:24:25.877Z,-440.32
2018-12-27T05:25:25.983Z,-440.12
2018-12-27T05:26:26.079Z,-431.50
2018-12-27T05:27:26.216Z,-435.51
2018-12-27T05:28:26.348Z,-438.60
2018-12-27T05:29:26.383Z,-431.23
2018-12-27T05:30:26.510Z,-439.07
2018-12-27T05:31:26.609Z,-437.02
2018-12-27T05:32:26.729Z,-442.41
2018-12-27T05:33:26.810Z,-432.51
2018-12-27T05:34:26.911Z,-431.04
2018-12-27T05:35:27.012Z,-444.53
2018-12-27T05:36:27.229Z,-440.34
2018-12-27T05:37:27.220Z,-433.39
2018-12-27T05:38:27.320Z,-437.87
2018-12-27T05:39:27.490Z,-432.94
2018-12-27T05:40:27.538Z,-435.82
2018-12-27T05:41:27.616Z,-438.25
2018-12-27T05:42:27.737Z,-431.07
2018-12-27T05:43:27.827Z,-433.41
2018-12-27T05:44:27.944Z,-444.32
2018-12-27T05:45:28.027Z,-433.09
2018-12-27T05:46:28.123Z,-434.62
2018-12-27T05:47:28.224Z,-435.02
2018-12-27T05:48:28.342Z,-436.24
2018-12-27T05:49:28.423Z,-462.55
2018-12-27T05:50:28.543Z,-464.77
2018-12-27T05:51:28.628Z,-460.38
2018-12-27T05:52:28.774Z,-463.01
2018-12-27T05:53:28.935Z,-461.79
2018-12-27T05:54:28.952Z,-460.75
2018-12-27T05:55:34.189Z,-462.38
2018-12-27T05:56:30.174Z,-464.79
2018-12-27T05:57:29.283Z,-469.37
2018-12-27T05:58:29.344Z,-460.86
2018-12-27T05:59:29.472Z,-435.02
2018-12-27T06:00:29.599Z,-437.22
2018-12-27T06:01:29.836Z,-436.91
2018-12-27T06:02:29.790Z,-437.94
2018-12-27T06:03:29.857Z,-437.53
2018-12-27T06:04:33.642Z,-431.90
2018-12-27T06:05:30.107Z,-436.69
2018-12-27T06:06:30.199Z,-440.97
2018-12-27T06:07:30.293Z,-430.04
2018-12-27T06:08:30.627Z,-441.77
2018-12-27T06:09:30.568Z,-443.06
2018-12-27T06:10:30.587Z,-442.19
2018-12-27T06:11:30.700Z,-436.29
2018-12-27T06:12:30.807Z,-426.62
2018-12-27T06:13:30.884Z,-432.74
2018-12-27T06:14:31.007Z,-428.64
2018-12-27T06:15:31.113Z,-433.00
2018-12-27T06:16:31.194Z,-438.92
2018-12-27T06:17:31.422Z,-438.36
2018-12-27T06:18:31.374Z,-428.71
2018-12-27T06:19:31.483Z,-435.76
2018-12-27T06:20:31.602Z,-429.43
2018-12-27T06:21:31.691Z,-438.21
2018-12-27T06:22:31.780Z,-431.23
2018-12-27T06:23:31.879Z,-438.67
2018-12-27T06:24:32.013Z,-433.89
2018-12-27T06:25:32.386Z,-439.02
2018-12-27T06:26:32.216Z,-438.80
2018-12-27T06:27:32.299Z,-428.84
2018-12-27T06:28:32.398Z,-436.01
2018-12-27T06:29:32.527Z,-432.24
2018-12-27T06:30:32.615Z,-441.67
2018-12-27T06:31:32.714Z,-432.62
2018-12-27T06:32:32.832Z,-421.75
2018-12-27T06:33:32.922Z,-421.89
2018-12-27T06:34:33.125Z,-421.83
2018-12-27T06:35:33.126Z,-430.95
2018-12-27T06:36:33.205Z,-432.97
2018-12-27T06:37:33.342Z,-438.01
2018-12-27T06:38:33.409Z,-429.82
2018-12-27T06:39:33.492Z,-438.42
2018-12-27T06:40:33.625Z,-431.93
2018-12-27T06:41:33.704Z,-431.72
2018-12-27T06:42:33.944Z,-440.73
2018-12-27T06:43:33.893Z,-436.11
2018-12-27T06:44:33.996Z,-439.37
2018-12-27T06:45:34.135Z,-436.06
2018-12-27T06:46:34.215Z,-436.40
2018-12-27T06:47:34.331Z,-442.46
2018-12-27T06:48:34.427Z,-441.39
2018-12-27T06:49:34.537Z,-430.27
2018-12-27T06:50:34.701Z,-428.33
2018-12-27T06:51:34.717Z,-433.70
2018-12-27T06:52:34.837Z,-437.75
2018-12-27T06:53:34.940Z,-428.40
2018-12-27T06:54:35.020Z,-443.15
2018-12-27T06:55:35.137Z,-438.66
2018-12-27T06:56:35.197Z,-440.53
2018-12-27T06:57:35.337Z,-439.81
2018-12-27T06:58:37.890Z,-441.38
2018-12-27T06:59:35.499Z,-441.50
2018-12-27T07:00:35.633Z,-442.24
2018-12-27T07:01:35.701Z,-437.70
2018-12-27T07:02:35.801Z,-437.93
2018-12-27T07:03:35.922Z,-430.81
2018-12-27T07:04:36.011Z,-434.23
2018-12-27T07:05:36.130Z,-433.03
2018-12-27T07:06:36.261Z,-428.18
2018-12-27T07:07:36.381Z,-422.85
2018-12-27T07:08:36.411Z,-433.04
2018-12-27T07:09:36.515Z,-436.60
2018-12-27T07:10:36.626Z,-432.07
2018-12-27T07:11:36.711Z,-429.86
2018-12-27T07:12:36.828Z,-434.44
2018-12-27T07:13:36.929Z,-424.92
2018-12-27T07:14:37.016Z,-431.19
2018-12-27T07:15:37.203Z,-435.04
2018-12-27T07:16:37.216Z,-433.92
2018-12-27T07:17:37.330Z,-445.17
2018-12-27T07:18:37.431Z,-443.01
2018-12-27T07:19:37.574Z,-440.83
2018-12-27T07:20:37.625Z,-438.19
2018-12-27T07:21:37.718Z,-433.92
2018-12-27T07:22:37.825Z,-434.19
2018-12-27T07:23:38.051Z,-437.96
2018-12-27T07:24:37.988Z,-442.80
2018-12-27T07:25:38.124Z,-433.43
2018-12-27T07:26:38.206Z,-436.10
2018-12-27T07:27:38.313Z,-442.49
2018-12-27T07:28:38.423Z,-441.15
2018-12-27T07:29:38.497Z,-432.67
2018-12-27T07:30:38.639Z,-440.63
2018-12-27T07:31:38.746Z,-440.93
2018-12-27T07:32:38.804Z,-432.85
2018-12-27T07:33:38.914Z,-438.61
2018-12-27T07:34:38.995Z,-424.09
2018-12-27T07:35:39.111Z,-436.92
2018-12-27T07:36:39.175Z,-436.86
2018-12-27T07:37:39.284Z,-430.54
2018-12-27T07:38:39.410Z,-432.27
2018-12-27T07:39:39.530Z,-426.88
2018-12-27T07:40:39.588Z,-436.84
2018-12-27T07:41:39.685Z,-433.14
2018-12-27T07:42:39.764Z,-436.83
2018-12-27T07:43:39.888Z,-437.67
2018-12-27T07:44:39.986Z,-428.32
2018-12-27T07:45:40.087Z,-430.84
2018-12-27T07:46:40.196Z,-432.22
2018-12-27T07:47:40.339Z,-425.18
2018-12-27T07:48:40.457Z,-428.45
2018-12-27T07:49:40.498Z,-426.94
2018-12-27T07:50:40.609Z,-427.60
2018-12-27T07:51:40.733Z,-437.78
2018-12-27T07:52:40.821Z,-423.66
2018-12-27T07:53:40.997Z,-423.91
2018-12-27T07:54:41.020Z,-426.61
2018-12-27T07:55:41.108Z,-431.50
2018-12-27T07:56:41.372Z,-424.49
2018-12-27T07:57:41.360Z,-425.51
2018-12-27T07:58:41.450Z,-423.67
2018-12-27T07:59:41.516Z,-425.32
2018-12-27T08:00:41.612Z,-432.58
2018-12-27T08:01:41.744Z,-424.66
2018-12-27T08:02:42.616Z,-430.92
2018-12-27T08:03:41.939Z,-428.34
2018-12-27T08:04:42.107Z,-423.05
2018-12-27T08:05:42.098Z,-420.97
2018-12-27T08:06:42.250Z,-423.01
2018-12-27T08:07:42.308Z,-434.26
2018-12-27T08:08:42.445Z,-424.39
2018-12-27T08:09:42.516Z,-431.68
2018-12-27T08:10:42.620Z,-425.84
2018-12-27T08:11:42.727Z,-426.96
2018-12-27T08:12:42.867Z,-425.87
2018-12-27T08:13:42.932Z,-421.34
2018-12-27T08:14:43.022Z,-428.04
2018-12-27T08:15:43.120Z,-425.51
2018-12-27T08:16:48.346Z,-435.94
2018-12-27T08:17:43.318Z,-435.49
2018-12-27T08:18:43.420Z,-435.03
2018-12-27T08:19:43.522Z,-428.39
2018-12-27T08:20:43.695Z,-427.13
2018-12-27T08:21:43.737Z,-432.44
2018-12-27T08:22:43.827Z,-429.82
2018-12-27T08:23:43.941Z,-424.36
2018-12-27T08:24:44.010Z,-421.06
2018-12-27T08:25:44.119Z,-430.34
2018-12-27T08:26:44.284Z,-421.86
2018-12-27T08:27:44.339Z,-432.08
2018-12-27T08:28:44.477Z,-430.68
2018-12-27T08:29:44.567Z,-428.98
2018-12-27T08:30:44.641Z,-420.68
2018-12-27T08:31:44.807Z,-425.45
2018-12-27T08:32:44.854Z,-429.40
2018-12-27T08:33:44.972Z,-430.84
2018-12-27T08:34:45.053Z,-428.46
2018-12-27T08:35:45.154Z,-423.76
2018-12-27T08:36:45.274Z,-429.03
2018-12-27T08:37:45.472Z,-429.69
2018-12-27T08:38:45.488Z,-421.60
2018-12-27T08:39:45.551Z,-423.51
2018-12-27T08:40:45.630Z,-423.18
2018-12-27T08:41:45.746Z,-429.22
2018-12-27T08:42:45.857Z,-421.35
2018-12-27T08:43:45.975Z,-421.00
2018-12-27T08:44:46.055Z,-428.56
2018-12-27T08:45:46.241Z,-427.12
2018-12-27T08:46:46.242Z,-429.50
2018-12-27T08:47:46.358Z,-420.94
2018-12-27T08:48:46.477Z,-421.30
2018-12-27T08:49:46.559Z,-432.43
2018-12-27T08:50:46.656Z,-423.26
2018-12-27T08:51:46.780Z,-432.96
2018-12-27T08:52:46.867Z,-424.58
2018-12-27T08:53:46.991Z,-431.08
2018-12-27T08:54:47.046Z,-429.19
2018-12-27T08:55:47.149Z,-427.04
2018-12-27T08:56:47.263Z,-432.56
2018-12-27T08:57:47.610Z,-420.87
2018-12-27T08:58:47.460Z,-423.37
2018-12-27T08:59:47.528Z,-430.35
2018-12-27T09:00:47.638Z,-429.03
2018-12-27T09:01:47.807Z,-432.25
2018-12-27T09:02:47.837Z,-418.99
2018-12-27T09:03:47.939Z,-423.23
2018-12-27T09:04:48.046Z,-428.46
2018-12-27T09:05:48.124Z,-427.04
2018-12-27T09:06:48.256Z,-433.05
2018-12-27T09:07:48.598Z,-425.43
2018-12-27T09:08:48.456Z,-425.53
2018-12-27T09:09:48.592Z,-424.38
2018-12-27T09:10:48.725Z,-420.80
2018-12-27T09:11:48.765Z,-429.05
2018-12-27T09:12:48.857Z,-423.50
2018-12-27T09:13:48.965Z,-422.25
2018-12-27T09:14:49.072Z,-426.08
2018-12-27T09:15:49.170Z,-426.23
2018-12-27T09:16:49.272Z,-429.37
2018-12-27T09:17:49.375Z,-426.06
2018-12-27T09:18:49.629Z,-422.21
2018-12-27T09:19:49.605Z,-429.09
2018-12-27T09:20:49.682Z,-429.26
2018-12-27T09:21:49.789Z,-427.76
2018-12-27T09:22:49.870Z,-426.63
2018-12-27T09:23:50.012Z,-424.59
2018-12-27T09:24:50.326Z,-421.14
2018-12-27T09:25:50.191Z,-421.70
2018-12-27T09:26:50.393Z,-427.22
2018-12-27T09:27:50.360Z,-425.27
2018-12-27T09:28:50.489Z,-425.13
2018-12-27T09:29:50.614Z,-420.34
2018-12-27T09:30:50.695Z,-426.54
2018-12-27T09:31:50.840Z,-419.56
2018-12-27T09:32:50.896Z,-419.86
2018-12-27T09:33:51.004Z,-426.80
2018-12-27T09:34:51.147Z,-427.13
2018-12-27T09:35:51.177Z,-425.28
2018-12-27T09:36:51.318Z,-418.68
2018-12-27T09:37:51.383Z,-421.45
2018-12-27T09:38:51.500Z,-421.84
2018-12-27T09:39:51.595Z,-430.11
2018-12-27T09:40:51.660Z,-424.88
2018-12-27T09:41:51.793Z,-429.47
2018-12-27T09:42:51.950Z,-428.71
2018-12-27T09:43:52.001Z,-432.02
2018-12-27T09:44:52.117Z,-423.09
2018-12-27T09:45:52.198Z,-423.07
2018-12-27T09:46:52.293Z,-431.95
2018-12-27T09:47:52.399Z,-432.08
2018-12-27T09:48:52.508Z,-423.09
2018-12-27T09:49:52.618Z,-425.36
2018-12-27T09:50:52.712Z,-423.96
2018-12-27T09:51:52.919Z,-421.53
2018-12-27T09:52:52.897Z,-420.65
2018-12-27T09:53:53.033Z,-420.14
2018-12-27T09:54:53.115Z,-425.95
2018-12-27T09:55:53.199Z,-420.65
2018-12-27T09:56:53.315Z,-427.53
2018-12-27T09:57:53.381Z,-420.83
2018-12-27T09:58:53.508Z,-426.76
2018-12-27T09:59:53.728Z,-429.99
2018-12-27T10:00:53.697Z,-425.30
2018-12-27T10:01:53.815Z,-423.68
2018-12-27T10:02:53.879Z,-427.34
2018-12-27T10:03:54.025Z,-430.96
2018-12-27T10:04:54.151Z,-423.80
2018-12-27T10:05:54.228Z,-423.18
2018-12-27T10:06:54.343Z,-421.99
2018-12-27T10:07:57.417Z,-423.02
2018-12-27T10:08:54.495Z,-427.18
2018-12-27T10:09:54.650Z,-423.39
2018-12-27T10:10:54.714Z,-420.34
2018-12-27T10:11:54.814Z,-419.14
2018-12-27T10:12:54.913Z,-424.59
2018-12-27T10:13:55.017Z,-428.53
2018-12-27T10:14:55.155Z,-430.44
2018-12-27T10:15:55.276Z,-434.27
2018-12-27T10:16:55.296Z,-424.55
2018-12-27T10:17:55.420Z,-434.58
2018-12-27T10:18:55.525Z,-426.15
2018-12-27T10:19:55.648Z,-423.23
2018-12-27T10:20:55.698Z,-426.51
2018-12-27T10:21:55.809Z,-428.25
2018-12-27T10:22:55.944Z,-423.67
2018-12-27T10:23:56.047Z,-430.11
2018-12-27T10:24:56.219Z,-432.67
2018-12-27T10:25:56.222Z,-427.79
2018-12-27T10:26:56.307Z,-427.25
2018-12-27T10:27:56.446Z,-426.56
2018-12-27T10:28:56.545Z,-430.19
2018-12-27T10:29:56.682Z,-430.64
2018-12-27T10:30:59.746Z,-428.79
2018-12-27T10:31:56.859Z,-438.18
2018-12-27T10:32:57.057Z,-431.18
2018-12-27T10:33:57.063Z,-421.60
2018-12-27T10:34:57.168Z,-417.61
2018-12-27T10:35:57.284Z,-428.63
2018-12-27T10:36:57.346Z,-425.41
2018-12-27T10:37:57.464Z,-425.16
2018-12-27T10:38:57.521Z,-420.51
2018-12-27T10:39:57.670Z,-424.14
2018-12-27T10:40:57.857Z,-428.60
2018-12-27T10:41:57.831Z,-428.92
2018-12-27T10:42:57.937Z,-429.88
2018-12-27T10:43:58.021Z,-425.49
2018-12-27T10:44:58.164Z,-429.00
2018-12-27T10:45:58.238Z,-435.89
2018-12-27T10:46:58.340Z,-427.75
2018-12-27T10:47:58.447Z,-430.60
2018-12-27T10:48:58.586Z,-421.38
2018-12-27T10:49:58.671Z,-421.07
2018-12-27T10:50:58.726Z,-418.95
2018-12-27T10:51:58.827Z,-424.58
2018-12-27T10:52:58.943Z,-428.83
2018-12-27T10:53:59.028Z,-426.14
2018-12-27T10:54:59.162Z,-423.44
2018-12-27T10:55:59.212Z,-424.24
2018-12-27T10:56:59.406Z,-449.50
2018-12-27T10:57:59.426Z,-453.28
2018-12-27T10:58:59.511Z,-454.96
2018-12-27T10:59:59.648Z,-453.29
2018-12-27T11:00:59.718Z,-425.78
2018-12-27T11:01:59.806Z,-420.00
2018-12-27T11:03:00.164Z,-423.35
2018-12-27T11:04:00.023Z,-426.98
2018-12-27T11:05:00.196Z,-423.82
2018-12-27T11:06:00.302Z,-422.61
2018-12-27T11:07:00.309Z,-420.67
2018-12-27T11:08:00.428Z,-431.10
2018-12-27T11:09:00.528Z,-432.05
2018-12-27T11:10:00.669Z,-427.09
2018-12-27T11:11:00.728Z,-428.39
2018-12-27T11:12:00.828Z,-422.83
2018-12-27T11:13:00.955Z,-419.16
2018-12-27T11:14:01.144Z,-422.60
2018-12-27T11:15:01.160Z,-438.82
2018-12-27T11:16:01.226Z,-426.29
2018-12-27T11:17:01.326Z,-426.73
2018-12-27T11:18:01.437Z,-431.87
2018-12-27T11:19:01.504Z,-431.32
2018-12-27T11:20:01.871Z,-427.33
2018-12-27T11:21:01.764Z,-427.87
2018-12-27T11:22:01.986Z,-434.26
2018-12-27T11:23:01.971Z,-424.21
2018-12-27T11:24:02.038Z,-424.42
2018-12-27T11:25:02.186Z,-427.43
2018-12-27T11:26:02.322Z,-426.59
2018-12-27T11:27:02.387Z,-432.45
2018-12-27T11:28:02.505Z,-432.72
2018-12-27T11:29:02.589Z,-427.24
2018-12-27T11:30:02.724Z,-434.00
2018-12-27T11:31:02.805Z,-421.46
2018-12-27T11:32:02.897Z,-430.78
2018-12-27T11:33:03.012Z,-424.32
2018-12-27T11:34:03.106Z,-420.73
2018-12-27T11:35:03.196Z,-425.18
2018-12-27T11:36:03.328Z,-428.00
2018-12-27T11:37:03.682Z,-428.04
2018-12-27T11:38:03.552Z,-417.91
2018-12-27T11:39:03.590Z,-424.27
2018-12-27T11:40:03.699Z,-430.89
2018-12-27T11:41:03.821Z,-424.41
2018-12-27T11:42:03.916Z,-432.00
2018-12-27T11:43:04.125Z,-426.47
2018-12-27T11:44:04.112Z,-426.04
2018-12-27T11:45:04.210Z,-426.02
2018-12-27T11:46:04.382Z,-425.13
2018-12-27T11:47:04.472Z,-422.80
2018-12-27T11:48:04.639Z,-424.92
2018-12-27T11:49:04.609Z,-432.44
2018-12-27T11:50:04.716Z,-422.70
2018-12-27T11:51:04.878Z,-433.00
2018-12-27T11:52:04.925Z,-430.01
2018-12-27T11:53:05.035Z,-430.57
2018-12-27T11:54:05.111Z,-421.81
2018-12-27T11:55:05.354Z,-428.40
2018-12-27T11:56:05.354Z,-427.24
2018-12-27T11:57:05.435Z,-431.12
2018-12-27T11:58:05.564Z,-433.30
2018-12-27T11:59:05.615Z,-420.34
2018-12-27T12:00:05.737Z,-427.67
2018-12-27T12:01:05.882Z,-422.52
2018-12-27T12:02:05.963Z,-421.20
2018-12-27T12:03:06.195Z,-432.51
2018-12-27T12:04:06.146Z,-425.35
2018-12-27T12:05:06.228Z,-426.43
2018-12-27T12:06:06.365Z,-429.80
2018-12-27T12:07:06.449Z,-425.04